CCM77ZT LFKJ-EBCI
Flight info
| Callsign | CCM77ZT |
|---|---|
| Flight time | 1h 27m |
| Altitude | 34000 |
| Route | CERVI DCT GILIR DCT ROUSY DCT LNO |
| Aircraft | A320/M-SDE3FGHIRWY/LB1 |
Departure
| Time | 2026-05-09 16:18 |
|---|---|
| Airport | Ajaccio Napoléon Bonaparte airport (LFKJ) |
Arrival
| Time | 2026-05-09 17:45 |
|---|---|
| Airport | Brussels South Charleroi Airport (EBCI) |
| Time | Latitude | Longitude | Altitude | Speed | Heading |
|---|---|---|---|---|---|
| 2026-05-09 15:48 | 41.91956 | 8.79576 | 26 ft | 0 kts | 345° |
| 2026-05-09 16:13 | 41.91962 | 8.79578 | 26 ft | 1 kts | 17° |
| 2026-05-09 16:13 | 41.91962 | 8.79592 | 31 ft | 4 kts | 90° |
| 2026-05-09 16:14 | 41.91983 | 8.79659 | 28 ft | 11 kts | 38° |
| 2026-05-09 16:14 | 41.92065 | 8.79712 | 27 ft | 15 kts | 25° |
| 2026-05-09 16:14 | 41.92175 | 8.79780 | 28 ft | 20 kts | 25° |
| 2026-05-09 16:14 | 41.92311 | 8.79865 | 26 ft | 22 kts | 25° |
| 2026-05-09 16:15 | 41.92464 | 8.79959 | 26 ft | 25 kts | 24° |
| 2026-05-09 16:15 | 41.92611 | 8.80052 | 27 ft | 22 kts | 25° |
| 2026-05-09 16:15 | 41.92755 | 8.80148 | 26 ft | 24 kts | 32° |
| 2026-05-09 16:15 | 41.92885 | 8.80304 | 28 ft | 23 kts | 45° |
| 2026-05-09 16:16 | 41.92963 | 8.80438 | 31 ft | 13 kts | 78° |
| 2026-05-09 16:16 | 41.92922 | 8.80551 | 32 ft | 16 kts | 150° |
| 2026-05-09 16:16 | 41.92849 | 8.80532 | 29 ft | 0 kts | 205° |
| 2026-05-09 16:17 | 41.92846 | 8.80530 | 30 ft | 6 kts | 205° |
| 2026-05-09 16:17 | 41.92560 | 8.80351 | 24 ft | 82 kts | 205° |
| 2026-05-09 16:17 | 41.91853 | 8.79911 | 20 ft | 139 kts | 205° |
| 2026-05-09 16:17 | 41.90894 | 8.79301 | 360 ft | 154 kts | 204° |
| 2026-05-09 16:18 | 41.89910 | 8.78681 | 944 ft | 160 kts | 204° |
| 2026-05-09 16:18 | 41.88872 | 8.78032 | 1385 ft | 176 kts | 204° |
| 2026-05-09 16:18 | 41.87719 | 8.77273 | 1667 ft | 199 kts | 214° |
| 2026-05-09 16:18 | 41.86893 | 8.75681 | 1923 ft | 222 kts | 258° |
| 2026-05-09 16:19 | 41.87088 | 8.73581 | 2202 ft | 246 kts | 298° |
| 2026-05-09 16:19 | 41.88332 | 8.71928 | 2620 ft | 263 kts | 337° |
| 2026-05-09 16:19 | 41.90125 | 8.71333 | 3291 ft | 271 kts | 358° |
| 2026-05-09 16:19 | 41.92024 | 8.71202 | 4092 ft | 276 kts | 2° |
| 2026-05-09 16:20 | 41.93965 | 8.71140 | 4938 ft | 281 kts | 1° |
| 2026-05-09 16:20 | 41.95944 | 8.71081 | 5774 ft | 287 kts | 0° |
| 2026-05-09 16:20 | 41.97953 | 8.70911 | 6501 ft | 293 kts | 353° |
| 2026-05-09 16:20 | 41.99977 | 8.70459 | 7264 ft | 296 kts | 348° |
| 2026-05-09 16:21 | 42.02009 | 8.69872 | 8037 ft | 300 kts | 347° |
| 2026-05-09 16:21 | 42.04052 | 8.69239 | 8810 ft | 304 kts | 346° |
| 2026-05-09 16:21 | 42.06125 | 8.68601 | 9589 ft | 307 kts | 346° |
| 2026-05-09 16:21 | 42.08229 | 8.67976 | 10297 ft | 313 kts | 347° |
| 2026-05-09 16:22 | 42.10441 | 8.67342 | 10496 ft | 337 kts | 347° |
| 2026-05-09 16:22 | 42.12820 | 8.66678 | 10700 ft | 360 kts | 348° |
| 2026-05-09 16:22 | 42.15324 | 8.65993 | 11156 ft | 371 kts | 348° |
| 2026-05-09 16:22 | 42.17866 | 8.65303 | 11814 ft | 375 kts | 348° |
| 2026-05-09 16:23 | 42.20437 | 8.64606 | 12512 ft | 379 kts | 348° |
| 2026-05-09 16:23 | 42.23034 | 8.63901 | 13203 ft | 382 kts | 348° |
| 2026-05-09 16:23 | 42.25650 | 8.63185 | 13872 ft | 385 kts | 348° |
| 2026-05-09 16:23 | 42.28603 | 8.62370 | 14535 ft | 388 kts | 348° |
| 2026-05-09 16:24 | 42.31179 | 8.61659 | 15141 ft | 390 kts | 348° |
| 2026-05-09 16:24 | 42.33854 | 8.60921 | 15762 ft | 393 kts | 348° |
| 2026-05-09 16:24 | 42.36548 | 8.60177 | 16357 ft | 396 kts | 348° |
| 2026-05-09 16:24 | 42.39253 | 8.59433 | 16959 ft | 398 kts | 348° |
| 2026-05-09 16:25 | 42.41948 | 8.58691 | 17513 ft | 402 kts | 348° |
| 2026-05-09 16:25 | 42.43806 | 8.58179 | 17920 ft | 403 kts | 348° |
| 2026-05-09 16:25 | 42.47462 | 8.57172 | 18632 ft | 407 kts | 348° |
| 2026-05-09 16:25 | 42.50249 | 8.56402 | 19109 ft | 410 kts | 347° |
| 2026-05-09 16:26 | 42.53062 | 8.55619 | 19588 ft | 414 kts | 347° |
| 2026-05-09 16:26 | 42.55897 | 8.54827 | 20058 ft | 418 kts | 347° |
| 2026-05-09 16:26 | 42.58760 | 8.54028 | 20506 ft | 422 kts | 346° |
| 2026-05-09 16:26 | 42.61650 | 8.53224 | 20946 ft | 426 kts | 346° |
| 2026-05-09 16:27 | 42.64573 | 8.52415 | 21388 ft | 430 kts | 346° |
| 2026-05-09 16:27 | 42.67513 | 8.51600 | 21805 ft | 433 kts | 345° |
| 2026-05-09 16:27 | 42.70478 | 8.50777 | 22225 ft | 437 kts | 345° |
| 2026-05-09 16:27 | 42.73471 | 8.49946 | 22650 ft | 440 kts | 344° |
| 2026-05-09 16:28 | 42.76486 | 8.49107 | 23059 ft | 443 kts | 344° |
| 2026-05-09 16:28 | 42.79521 | 8.48257 | 23467 ft | 447 kts | 343° |
| 2026-05-09 16:28 | 42.82534 | 8.47411 | 23792 ft | 449 kts | 343° |
| 2026-05-09 16:28 | 42.85608 | 8.46548 | 24110 ft | 452 kts | 343° |
| 2026-05-09 16:29 | 42.88695 | 8.45682 | 24447 ft | 454 kts | 343° |
| 2026-05-09 16:29 | 42.91802 | 8.44813 | 24775 ft | 457 kts | 343° |
| 2026-05-09 16:29 | 42.94920 | 8.43944 | 25113 ft | 458 kts | 343° |
| 2026-05-09 16:29 | 42.98048 | 8.43069 | 25454 ft | 460 kts | 343° |
| 2026-05-09 16:30 | 43.01191 | 8.42186 | 25761 ft | 462 kts | 343° |
| 2026-05-09 16:30 | 43.04350 | 8.41294 | 26074 ft | 464 kts | 343° |
| 2026-05-09 16:30 | 43.06450 | 8.40700 | 26276 ft | 465 kts | 343° |
| 2026-05-09 16:30 | 43.09626 | 8.39801 | 26565 ft | 468 kts | 343° |
| 2026-05-09 16:31 | 43.12826 | 8.38899 | 26867 ft | 470 kts | 343° |
| 2026-05-09 16:31 | 43.16031 | 8.37996 | 27178 ft | 471 kts | 344° |
| 2026-05-09 16:31 | 43.19241 | 8.37088 | 27463 ft | 472 kts | 343° |
| 2026-05-09 16:31 | 43.22466 | 8.36175 | 27739 ft | 474 kts | 343° |
| 2026-05-09 16:32 | 43.26795 | 8.34950 | 28088 ft | 476 kts | 343° |
| 2026-05-09 16:32 | 43.28946 | 8.34340 | 28281 ft | 477 kts | 344° |
| 2026-05-09 16:32 | 43.32205 | 8.33412 | 28540 ft | 479 kts | 344° |
| 2026-05-09 16:32 | 43.35474 | 8.32481 | 28797 ft | 480 kts | 344° |
| 2026-05-09 16:33 | 43.38738 | 8.31549 | 29038 ft | 481 kts | 344° |
| 2026-05-09 16:33 | 43.42020 | 8.30609 | 29262 ft | 482 kts | 344° |
| 2026-05-09 16:33 | 43.45307 | 8.29667 | 29569 ft | 482 kts | 344° |
| 2026-05-09 16:33 | 43.48587 | 8.28730 | 29911 ft | 480 kts | 344° |
| 2026-05-09 16:34 | 43.51856 | 8.27799 | 30199 ft | 479 kts | 344° |
| 2026-05-09 16:34 | 43.55122 | 8.26869 | 30503 ft | 478 kts | 344° |
| 2026-05-09 16:34 | 43.58326 | 8.25951 | 30789 ft | 477 kts | 343° |
| 2026-05-09 16:34 | 43.61620 | 8.25003 | 31059 ft | 476 kts | 343° |
| 2026-05-09 16:35 | 43.64822 | 8.24084 | 31300 ft | 476 kts | 343° |
| 2026-05-09 16:35 | 43.68067 | 8.23153 | 31549 ft | 476 kts | 343° |
| 2026-05-09 16:35 | 43.71311 | 8.22218 | 31797 ft | 476 kts | 343° |
| 2026-05-09 16:35 | 43.74563 | 8.21276 | 32062 ft | 476 kts | 342° |
| 2026-05-09 16:36 | 43.77801 | 8.20337 | 32323 ft | 476 kts | 342° |
| 2026-05-09 16:36 | 43.87529 | 8.17527 | 33067 ft | 476 kts | 342° |
| 2026-05-09 16:37 | 43.90633 | 8.16631 | 33301 ft | 476 kts | 342° |
| 2026-05-09 16:37 | 43.93880 | 8.15692 | 33557 ft | 476 kts | 342° |
| 2026-05-09 16:37 | 43.97121 | 8.14751 | 33821 ft | 476 kts | 342° |
| 2026-05-09 16:37 | 44.00360 | 8.13807 | 34069 ft | 476 kts | 341° |
| 2026-05-09 16:38 | 44.06856 | 8.11902 | 34086 ft | 478 kts | 342° |
| 2026-05-09 16:38 | 44.13352 | 8.09995 | 34031 ft | 477 kts | 342° |
| 2026-05-09 16:39 | 44.19783 | 8.08113 | 34032 ft | 475 kts | 341° |
| 2026-05-09 16:39 | 44.26261 | 8.06226 | 34035 ft | 475 kts | 341° |
| 2026-05-09 16:40 | 44.32738 | 8.04317 | 34035 ft | 476 kts | 341° |
| 2026-05-09 16:42 | 44.58543 | 7.96678 | 34056 ft | 473 kts | 341° |
| 2026-05-09 16:42 | 44.64993 | 7.94763 | 34025 ft | 474 kts | 341° |
| 2026-05-09 16:43 | 44.71447 | 7.92850 | 34011 ft | 474 kts | 341° |
| 2026-05-09 16:43 | 44.77905 | 7.90932 | 34028 ft | 474 kts | 342° |
| 2026-05-09 16:44 | 44.84355 | 7.88998 | 34024 ft | 474 kts | 342° |
| 2026-05-09 16:44 | 44.90809 | 7.87050 | 34023 ft | 474 kts | 341° |
| 2026-05-09 16:45 | 44.97256 | 7.85111 | 34029 ft | 474 kts | 341° |
| 2026-05-09 16:45 | 45.03665 | 7.83184 | 34033 ft | 473 kts | 341° |
| 2026-05-09 16:46 | 45.10098 | 7.81239 | 34042 ft | 472 kts | 341° |
| 2026-05-09 16:46 | 45.16526 | 7.79287 | 34046 ft | 472 kts | 341° |
| 2026-05-09 16:47 | 45.22939 | 7.77341 | 34045 ft | 471 kts | 341° |
| 2026-05-09 16:47 | 45.29351 | 7.75392 | 34042 ft | 471 kts | 341° |
| 2026-05-09 16:48 | 45.35749 | 7.73444 | 34066 ft | 470 kts | 341° |
| 2026-05-09 16:48 | 45.42137 | 7.71492 | 34066 ft | 469 kts | 341° |
| 2026-05-09 16:49 | 45.48483 | 7.69539 | 34062 ft | 469 kts | 341° |
| 2026-05-09 16:50 | 45.58051 | 7.66600 | 34088 ft | 468 kts | 342° |
| 2026-05-09 16:50 | 45.64412 | 7.64647 | 34096 ft | 467 kts | 341° |
| 2026-05-09 16:51 | 45.70747 | 7.62694 | 34099 ft | 466 kts | 341° |
| 2026-05-09 16:51 | 45.77079 | 7.60728 | 34116 ft | 466 kts | 341° |
| 2026-05-09 16:52 | 45.83405 | 7.58760 | 34109 ft | 465 kts | 342° |
| 2026-05-09 16:52 | 45.89722 | 7.56801 | 34086 ft | 463 kts | 341° |
| 2026-05-09 16:53 | 45.95873 | 7.54315 | 34069 ft | 453 kts | 329° |
| 2026-05-09 16:53 | 46.01157 | 7.49695 | 34022 ft | 439 kts | 314° |
| 2026-05-09 16:54 | 46.05864 | 7.44194 | 33980 ft | 438 kts | 315° |
| 2026-05-09 16:54 | 46.10605 | 7.38664 | 33954 ft | 438 kts | 315° |
| 2026-05-09 16:55 | 46.15331 | 7.33132 | 33958 ft | 438 kts | 314° |
| 2026-05-09 16:55 | 46.20048 | 7.27588 | 33953 ft | 437 kts | 314° |
| 2026-05-09 16:56 | 46.24750 | 7.22044 | 33945 ft | 436 kts | 314° |
| 2026-05-09 16:56 | 46.29451 | 7.16495 | 33944 ft | 437 kts | 314° |
| 2026-05-09 16:57 | 46.34164 | 7.10923 | 33950 ft | 437 kts | 314° |
| 2026-05-09 16:57 | 46.38251 | 7.06092 | 33968 ft | 438 kts | 314° |
| 2026-05-09 16:58 | 46.42936 | 7.00536 | 33974 ft | 437 kts | 313° |
| 2026-05-09 16:58 | 46.47640 | 6.94928 | 33982 ft | 438 kts | 313° |
| 2026-05-09 16:59 | 46.52342 | 6.89309 | 33969 ft | 437 kts | 313° |
| 2026-05-09 16:59 | 46.57033 | 6.83684 | 33961 ft | 438 kts | 313° |
| 2026-05-09 17:00 | 46.61739 | 6.78045 | 33951 ft | 438 kts | 313° |
| 2026-05-09 17:00 | 46.66444 | 6.72399 | 33954 ft | 439 kts | 313° |
| 2026-05-09 17:01 | 46.71153 | 6.66729 | 33961 ft | 439 kts | 313° |
| 2026-05-09 17:01 | 46.75857 | 6.61048 | 33961 ft | 439 kts | 313° |
| 2026-05-09 17:02 | 46.80524 | 6.55398 | 33991 ft | 439 kts | 313° |
| 2026-05-09 17:02 | 46.85220 | 6.49709 | 34004 ft | 438 kts | 313° |
| 2026-05-09 17:03 | 46.89906 | 6.44008 | 33988 ft | 438 kts | 313° |
| 2026-05-09 17:04 | 47.06961 | 6.25207 | 33986 ft | 457 kts | 333° |
| 2026-05-09 17:05 | 47.10061 | 6.23991 | 33976 ft | 467 kts | 343° |
| 2026-05-09 17:05 | 47.16636 | 6.23427 | 33979 ft | 475 kts | 351° |
| 2026-05-09 17:06 | 47.23246 | 6.23104 | 33988 ft | 475 kts | 351° |
| 2026-05-09 17:06 | 47.29853 | 6.22765 | 33989 ft | 474 kts | 351° |
| 2026-05-09 17:07 | 47.36458 | 6.22430 | 33996 ft | 475 kts | 351° |
| 2026-05-09 17:07 | 47.43063 | 6.22098 | 33986 ft | 475 kts | 351° |
| 2026-05-09 17:08 | 47.49666 | 6.21767 | 33983 ft | 475 kts | 351° |
| 2026-05-09 17:08 | 47.59563 | 6.21261 | 33986 ft | 474 kts | 351° |
| 2026-05-09 17:09 | 47.66155 | 6.20928 | 33998 ft | 473 kts | 351° |
| 2026-05-09 17:09 | 47.72727 | 6.20606 | 33998 ft | 472 kts | 351° |
| 2026-05-09 17:10 | 47.79252 | 6.20281 | 33994 ft | 472 kts | 351° |
| 2026-05-09 17:10 | 47.85825 | 6.19955 | 34009 ft | 471 kts | 351° |
| 2026-05-09 17:11 | 47.92371 | 6.19614 | 34008 ft | 470 kts | 351° |
| 2026-05-09 17:11 | 47.98907 | 6.19279 | 34009 ft | 470 kts | 351° |
| 2026-05-09 17:12 | 48.05444 | 6.18957 | 34011 ft | 469 kts | 351° |
| 2026-05-09 17:12 | 48.11945 | 6.18631 | 34030 ft | 466 kts | 350° |
| 2026-05-09 17:13 | 48.18420 | 6.18306 | 34028 ft | 464 kts | 350° |
| 2026-05-09 17:13 | 48.24818 | 6.17982 | 34026 ft | 462 kts | 350° |
| 2026-05-09 17:14 | 48.31232 | 6.17644 | 34038 ft | 460 kts | 350° |
| 2026-05-09 17:14 | 48.37626 | 6.17316 | 34031 ft | 459 kts | 350° |
| 2026-05-09 17:15 | 48.43996 | 6.16989 | 34023 ft | 457 kts | 350° |
| 2026-05-09 17:15 | 48.50347 | 6.16655 | 34030 ft | 457 kts | 351° |
| 2026-05-09 17:17 | 48.75733 | 6.15319 | 34009 ft | 456 kts | 351° |
| 2026-05-09 17:18 | 48.82069 | 6.14992 | 34009 ft | 456 kts | 351° |
| 2026-05-09 17:18 | 48.88406 | 6.14652 | 34004 ft | 455 kts | 351° |
| 2026-05-09 17:19 | 48.94740 | 6.14325 | 34026 ft | 456 kts | 352° |
| 2026-05-09 17:19 | 49.01082 | 6.13990 | 34005 ft | 456 kts | 352° |
| 2026-05-09 17:20 | 49.06357 | 6.13711 | 33996 ft | 456 kts | 352° |
| 2026-05-09 17:20 | 49.13733 | 6.13310 | 33995 ft | 456 kts | 352° |
| 2026-05-09 17:21 | 49.19048 | 6.13014 | 34004 ft | 456 kts | 353° |
| 2026-05-09 17:21 | 49.25399 | 6.12682 | 34002 ft | 456 kts | 353° |
| 2026-05-09 17:22 | 49.31740 | 6.12358 | 34000 ft | 456 kts | 353° |
| 2026-05-09 17:22 | 49.38087 | 6.12015 | 34027 ft | 456 kts | 353° |
| 2026-05-09 17:23 | 49.44441 | 6.11668 | 33272 ft | 456 kts | 353° |
| 2026-05-09 17:23 | 49.47560 | 6.11363 | 32428 ft | 453 kts | 347° |
| 2026-05-09 17:23 | 49.50628 | 6.10446 | 31634 ft | 447 kts | 342° |
| 2026-05-09 17:25 | 49.65697 | 6.05042 | 28570 ft | 445 kts | 342° |
| 2026-05-09 17:25 | 49.68704 | 6.03952 | 28030 ft | 442 kts | 342° |
| 2026-05-09 17:25 | 49.71694 | 6.02873 | 27500 ft | 440 kts | 342° |
| 2026-05-09 17:25 | 49.74670 | 6.01806 | 26986 ft | 437 kts | 342° |
| 2026-05-09 17:26 | 49.77628 | 6.00745 | 26470 ft | 435 kts | 342° |
| 2026-05-09 17:26 | 49.80573 | 5.99689 | 25964 ft | 432 kts | 342° |
| 2026-05-09 17:26 | 49.83502 | 5.98634 | 25476 ft | 432 kts | 342° |
| 2026-05-09 17:26 | 49.86421 | 5.97577 | 25004 ft | 431 kts | 342° |
| 2026-05-09 17:27 | 49.89299 | 5.96531 | 24535 ft | 429 kts | 342° |
| 2026-05-09 17:27 | 49.92199 | 5.95475 | 24067 ft | 427 kts | 342° |
| 2026-05-09 17:27 | 49.95081 | 5.94431 | 23606 ft | 425 kts | 343° |
| 2026-05-09 17:27 | 49.97953 | 5.93386 | 23060 ft | 423 kts | 343° |
| 2026-05-09 17:28 | 50.00811 | 5.92341 | 22531 ft | 421 kts | 343° |
| 2026-05-09 17:28 | 50.03657 | 5.91301 | 21995 ft | 419 kts | 343° |
| 2026-05-09 17:28 | 50.06494 | 5.90266 | 21424 ft | 418 kts | 343° |
| 2026-05-09 17:28 | 50.09318 | 5.89232 | 20861 ft | 415 kts | 343° |
| 2026-05-09 17:29 | 50.12006 | 5.87726 | 20312 ft | 407 kts | 328° |
| 2026-05-09 17:29 | 50.14275 | 5.85195 | 19775 ft | 398 kts | 313° |
| 2026-05-09 17:29 | 50.16133 | 5.82029 | 19246 ft | 393 kts | 306° |
| 2026-05-09 17:29 | 50.17522 | 5.78429 | 18716 ft | 386 kts | 289° |
| 2026-05-09 17:30 | 50.18220 | 5.74430 | 18175 ft | 381 kts | 280° |
| 2026-05-09 17:30 | 50.18789 | 5.70393 | 17595 ft | 379 kts | 280° |
| 2026-05-09 17:30 | 50.19353 | 5.66389 | 17016 ft | 377 kts | 280° |
| 2026-05-09 17:30 | 50.19918 | 5.62402 | 16450 ft | 375 kts | 281° |
| 2026-05-09 17:31 | 50.20482 | 5.58432 | 15881 ft | 374 kts | 281° |
| 2026-05-09 17:31 | 50.21035 | 5.54527 | 15343 ft | 372 kts | 281° |
| 2026-05-09 17:32 | 50.23226 | 5.38950 | 13156 ft | 362 kts | 280° |
| 2026-05-09 17:32 | 50.23757 | 5.35126 | 12580 ft | 359 kts | 280° |
| 2026-05-09 17:32 | 50.24284 | 5.31337 | 12031 ft | 355 kts | 280° |
| 2026-05-09 17:33 | 50.24803 | 5.27596 | 11539 ft | 350 kts | 280° |
| 2026-05-09 17:33 | 50.25315 | 5.23901 | 11035 ft | 346 kts | 280° |
| 2026-05-09 17:33 | 50.25821 | 5.20243 | 10545 ft | 342 kts | 280° |
| 2026-05-09 17:33 | 50.26322 | 5.16624 | 10062 ft | 339 kts | 280° |
| 2026-05-09 17:34 | 50.26819 | 5.13034 | 9569 ft | 335 kts | 280° |
| 2026-05-09 17:35 | 50.29334 | 4.94622 | 7541 ft | 276 kts | 279° |
| 2026-05-09 17:35 | 50.29732 | 4.91685 | 7219 ft | 276 kts | 279° |
| 2026-05-09 17:36 | 50.30127 | 4.88755 | 6906 ft | 276 kts | 279° |
| 2026-05-09 17:36 | 50.30517 | 4.85851 | 6585 ft | 276 kts | 279° |
| 2026-05-09 17:36 | 50.30909 | 4.82913 | 6258 ft | 276 kts | 279° |
| 2026-05-09 17:36 | 50.31301 | 4.79981 | 5962 ft | 275 kts | 280° |
| 2026-05-09 17:37 | 50.31694 | 4.77046 | 5706 ft | 276 kts | 281° |
| 2026-05-09 17:37 | 50.32089 | 4.74100 | 5446 ft | 276 kts | 281° |
| 2026-05-09 17:37 | 50.32482 | 4.71173 | 5200 ft | 274 kts | 280° |
| 2026-05-09 17:37 | 50.32873 | 4.68254 | 4953 ft | 272 kts | 281° |
| 2026-05-09 17:38 | 50.33257 | 4.65372 | 4707 ft | 270 kts | 281° |
| 2026-05-09 17:38 | 50.33638 | 4.62503 | 4387 ft | 267 kts | 282° |
| 2026-05-09 17:38 | 50.34014 | 4.59671 | 4060 ft | 263 kts | 283° |
| 2026-05-09 17:39 | 50.34742 | 4.54143 | 3404 ft | 256 kts | 284° |
| 2026-05-09 17:39 | 50.35095 | 4.51447 | 3151 ft | 250 kts | 283° |
| 2026-05-09 17:39 | 50.35441 | 4.48800 | 3011 ft | 248 kts | 284° |
| 2026-05-09 17:39 | 50.35786 | 4.46169 | 3006 ft | 244 kts | 284° |
| 2026-05-09 17:40 | 50.36115 | 4.43645 | 3008 ft | 228 kts | 284° |
| 2026-05-09 17:40 | 50.36423 | 4.41264 | 2971 ft | 219 kts | 284° |
| 2026-05-09 17:40 | 50.36718 | 4.38966 | 2852 ft | 212 kts | 283° |
| 2026-05-09 17:40 | 50.37007 | 4.36740 | 2730 ft | 204 kts | 284° |
| 2026-05-09 17:41 | 50.37283 | 4.34613 | 2655 ft | 194 kts | 284° |
| 2026-05-09 17:41 | 50.37551 | 4.32601 | 2554 ft | 182 kts | 287° |
| 2026-05-09 17:41 | 50.38124 | 4.30944 | 2509 ft | 172 kts | 318° |
| 2026-05-09 17:41 | 50.39091 | 4.29945 | 2510 ft | 164 kts | 346° |
| 2026-05-09 17:42 | 50.40196 | 4.29746 | 2511 ft | 159 kts | 10° |
| 2026-05-09 17:42 | 50.41223 | 4.30318 | 2512 ft | 157 kts | 34° |
| 2026-05-09 17:42 | 50.41977 | 4.31525 | 2509 ft | 156 kts | 59° |
| 2026-05-09 17:42 | 50.42454 | 4.32991 | 2490 ft | 145 kts | 66° |
| 2026-05-09 17:43 | 50.42824 | 4.34468 | 2194 ft | 146 kts | 68° |
| 2026-05-09 17:43 | 50.43233 | 4.35944 | 1822 ft | 148 kts | 63° |
| 2026-05-09 17:43 | 50.43678 | 4.37379 | 1501 ft | 146 kts | 63° |
| 2026-05-09 17:43 | 50.44085 | 4.38783 | 1306 ft | 138 kts | 65° |
| 2026-05-09 17:44 | 50.44481 | 4.40115 | 1114 ft | 132 kts | 63° |
| 2026-05-09 17:44 | 50.44868 | 4.41459 | 1088 ft | 139 kts | 65° |
| 2026-05-09 17:44 | 50.45268 | 4.42823 | 833 ft | 138 kts | 63° |
| 2026-05-09 17:44 | 50.45616 | 4.44008 | 637 ft | 134 kts | 65° |
| 2026-05-09 17:45 | 50.45968 | 4.45229 | 590 ft | 102 kts | 65° |
| 2026-05-09 17:45 | 50.46190 | 4.45991 | 592 ft | 52 kts | 65° |
| 2026-05-09 17:45 | 50.46280 | 4.46301 | 589 ft | 21 kts | 65° |
| 2026-05-09 17:45 | 50.46338 | 4.46500 | 591 ft | 21 kts | 66° |
| 2026-05-09 17:46 | 50.46402 | 4.46724 | 592 ft | 22 kts | 64° |
| 2026-05-09 17:46 | 50.46463 | 4.46882 | 594 ft | 13 kts | 32° |
| 2026-05-09 17:46 | 50.46541 | 4.46871 | 594 ft | 9 kts | 331° |
| 2026-05-09 17:46 | 50.46589 | 4.46838 | 593 ft | 0 kts | 337° |
| 2026-05-09 17:47 | 50.46600 | 4.46831 | 593 ft | 6 kts | 337° |
| 2026-05-09 17:47 | 50.46619 | 4.46818 | 592 ft | 6 kts | 337° |
| 2026-05-09 17:47 | 50.46685 | 4.46775 | 589 ft | 12 kts | 349° |
| 2026-05-09 17:47 | 50.46726 | 4.46809 | 587 ft | 4 kts | 56° |
| 2026-05-09 17:48 | 50.46736 | 4.46848 | 587 ft | 2 kts | 66° |
| 2026-05-09 17:48 | 50.46743 | 4.46872 | 586 ft | 3 kts | 65° |
| 2026-05-09 17:48 | 50.46756 | 4.46902 | 586 ft | 5 kts | 43° |
| 2026-05-09 17:48 | 50.46793 | 4.46884 | 585 ft | 4 kts | 336° |
| 2026-05-09 17:49 | 50.46804 | 4.46877 | 585 ft | 0 kts | 336° |